Hertford, North Carolina
Current Conditions -  °F | °C
As of 11:35 PM on Friday 19 Dec 2014 (Local Time) from KEDE Reporting Station
NA  
Wind Chill: 35°   Ceiling: NA
Heat Index: 35°   Visibility: 10mi
Dew Point: 31°   Wind: 3mph
Humidity: 87%   Direction: 50°NE
Pressure: 30.24"   Gusts: NA
Location:  36.19°N, 76.47°W
Report Text: KEDE 200435Z AUTO 05003KT 10SM 01/M01 A3024 RMK AO2 T00141006
Loading
Personal Weather Stations






























Interactive Weather Map New forecast layout! Learn more

10-Day Weather Forecast

Advertisements
Track Severe Weather on mobile